sensor_id;sensor_type;location;lat;lon;timestamp;P1;durP1;ratioP1;P2;durP2;ratioP2
24285;SDS011;26641;45.416;10.992;2023-06-24T18:31:31;0.00;;;0.00;;
24285;SDS011;26641;45.416;10.992;2023-06-24T18:33:57;0.00;;;0.00;;
24285;SDS011;26641;45.416;10.992;2023-06-24T18:36:23;0.00;;;0.00;;
24285;SDS011;26641;45.416;10.992;2023-06-24T18:38:49;0.00;;;0.00;;
24285;SDS011;26641;45.416;10.992;2023-06-24T18:41:15;0.00;;;0.00;;
24285;SDS011;26641;45.416;10.992;2023-06-24T18:43:41;0.00;;;0.00;;
24285;SDS011;26641;45.416;10.992;2023-06-24T18:46:07;0.00;;;0.00;;
24285;SDS011;26641;45.416;10.992;2023-06-24T18:48:34;0.00;;;0.00;;
24285;SDS011;26641;45.416;10.992;2023-06-24T18:50:59;0.00;;;0.00;;
24285;SDS011;26641;45.416;10.992;2023-06-24T18:53:25;0.00;;;0.00;;
24285;SDS011;26641;45.416;10.992;2023-06-24T18:55:52;0.00;;;0.00;;
24285;SDS011;26641;45.416;10.992;2023-06-24T18:58:18;0.00;;;0.00;;
24285;SDS011;26641;45.416;10.992;2023-06-24T19:00:44;0.00;;;0.00;;
24285;SDS011;26641;45.416;10.992;2023-06-24T19:03:11;0.00;;;0.00;;
24285;SDS011;26641;45.416;10.992;2023-06-24T19:05:40;0.00;;;0.00;;
24285;SDS011;26641;45.416;10.992;2023-06-24T19:08:06;0.00;;;0.00;;
24285;SDS011;26641;45.416;10.992;2023-06-24T19:10:32;0.00;;;0.00;;
24285;SDS011;26641;45.416;10.992;2023-06-24T19:12:58;0.00;;;0.00;;
24285;SDS011;26641;45.416;10.992;2023-06-24T19:15:24;0.00;;;0.00;;
24285;SDS011;26641;45.416;10.992;2023-06-24T19:17:50;0.00;;;0.00;;
24285;SDS011;26641;45.416;10.992;2023-06-24T19:20:16;0.00;;;0.00;;
24285;SDS011;26641;45.416;10.992;2023-06-24T19:22:43;0.00;;;0.00;;
24285;SDS011;26641;45.416;10.992;2023-06-24T19:25:12;0.43;;;0.43;;
24285;SDS011;26641;45.416;10.992;2023-06-24T19:27:38;0.05;;;0.05;;
24285;SDS011;26641;45.416;10.992;2023-06-24T19:30:04;0.80;;;0.80;;
24285;SDS011;26641;45.416;10.992;2023-06-24T19:32:31;1.95;;;1.90;;
24285;SDS011;26641;45.416;10.992;2023-06-24T19:34:58;1.80;;;1.80;;
24285;SDS011;26641;45.416;10.992;2023-06-24T19:37:24;2.30;;;2.20;;
24285;SDS011;26641;45.416;10.992;2023-06-24T19:39:51;2.30;;;2.20;;
24285;SDS011;26641;45.416;10.992;2023-06-24T19:42:17;2.80;;;2.70;;
24285;SDS011;26641;45.416;10.992;2023-06-24T19:44:43;3.30;;;3.20;;
24285;SDS011;26641;45.416;10.992;2023-06-24T19:47:09;3.10;;;3.00;;
24285;SDS011;26641;45.416;10.992;2023-06-24T19:49:38;2.90;;;2.80;;
24285;SDS011;26641;45.416;10.992;2023-06-24T19:52:17;4.40;;;4.20;;
24285;SDS011;26641;45.416;10.992;2023-06-24T19:54:43;6.00;;;5.65;;
24285;SDS011;26641;45.416;10.992;2023-06-24T19:57:09;7.60;;;7.10;;
24285;SDS011;26641;45.416;10.992;2023-06-24T19:59:35;6.85;;;6.45;;
24285;SDS011;26641;45.416;10.992;2023-06-24T20:02:02;6.43;;;6.03;;
24285;SDS011;26641;45.416;10.992;2023-06-24T20:04:28;7.67;;;7.17;;
24285;SDS011;26641;45.416;10.992;2023-06-24T20:06:54;7.40;;;6.90;;
24285;SDS011;26641;45.416;10.992;2023-06-24T20:09:20;8.90;;;8.20;;
24285;SDS011;26641;45.416;10.992;2023-06-24T20:11:47;9.50;;;8.80;;
24285;SDS011;26641;45.416;10.992;2023-06-24T20:14:13;10.57;;;9.68;;
24285;SDS011;26641;45.416;10.992;2023-06-24T20:16:39;11.00;;;10.00;;
24285;SDS011;26641;45.416;10.992;2023-06-24T20:19:05;11.95;;;10.85;;
24285;SDS011;26641;45.416;10.992;2023-06-24T20:21:31;13.57;;;12.18;;
24285;SDS011;26641;45.416;10.992;2023-06-24T20:23:57;13.50;;;12.10;;
24285;SDS011;26641;45.416;10.992;2023-06-24T20:26:23;12.90;;;11.60;;
24285;SDS011;26641;45.416;10.992;2023-06-24T20:28:50;13.15;;;11.85;;
24285;SDS011;26641;45.416;10.992;2023-06-24T20:31:16;15.60;;;13.30;;
24285;SDS011;26641;45.416;10.992;2023-06-24T20:33:44;16.73;;;13.80;;
24285;SDS011;26641;45.416;10.992;2023-06-24T20:36:10;19.00;;;14.60;;
24285;SDS011;26641;45.416;10.992;2023-06-24T20:38:36;18.80;;;14.50;;
24285;SDS011;26641;45.416;10.992;2023-06-24T20:41:03;19.08;;;14.70;;
24285;SDS011;26641;45.416;10.992;2023-06-24T20:43:28;23.27;;;16.02;;
24285;SDS011;26641;45.416;10.992;2023-06-24T20:45:55;20.45;;;15.13;;
24285;SDS011;26641;45.416;10.992;2023-06-24T20:48:21;18.35;;;14.35;;
24285;SDS011;26641;45.416;10.992;2023-06-24T20:50:48;19.20;;;14.70;;
24285;SDS011;26641;45.416;10.992;2023-06-24T20:53:14;19.83;;;14.90;;
24285;SDS011;26641;45.416;10.992;2023-06-24T20:55:41;21.02;;;15.25;;
24285;SDS011;26641;45.416;10.992;2023-06-24T20:58:07;18.70;;;14.50;;
24285;SDS011;26641;45.416;10.992;2023-06-24T21:00:35;21.83;;;15.50;;
24285;SDS011;26641;45.416;10.992;2023-06-24T21:03:01;22.33;;;15.70;;
24285;SDS011;26641;45.416;10.992;2023-06-24T21:05:27;22.90;;;15.90;;
24285;SDS011;26641;45.416;10.992;2023-06-24T21:07:53;21.20;;;15.38;;
24285;SDS011;26641;45.416;10.992;2023-06-24T21:10:19;20.65;;;15.10;;
24285;SDS011;26641;45.416;10.992;2023-06-24T21:12:45;20.25;;;15.00;;
24285;SDS011;26641;45.416;10.992;2023-06-24T21:15:15;20.08;;;14.98;;
24285;SDS011;26641;45.416;10.992;2023-06-24T21:17:42;21.50;;;15.40;;
24285;SDS011;26641;45.416;10.992;2023-06-24T21:20:07;22.30;;;15.70;;
24285;SDS011;26641;45.416;10.992;2023-06-24T21:22:33;19.80;;;14.82;;
24285;SDS011;26641;45.416;10.992;2023-06-24T21:24:59;20.70;;;15.18;;
24285;SDS011;26641;45.416;10.992;2023-06-24T21:27:25;20.75;;;15.15;;
24285;SDS011;26641;45.416;10.992;2023-06-24T21:29:52;21.77;;;15.55;;
24285;SDS011;26641;45.416;10.992;2023-06-24T21:32:18;21.00;;;15.30;;
24285;SDS011;26641;45.416;10.992;2023-06-24T21:34:44;19.33;;;14.73;;
24285;SDS011;26641;45.416;10.992;2023-06-24T21:37:10;21.33;;;15.50;;
24285;SDS011;26641;45.416;10.992;2023-06-24T21:39:36;20.98;;;15.30;;
24285;SDS011;26641;45.416;10.992;2023-06-24T21:42:02;20.80;;;15.25;;
24285;SDS011;26641;45.416;10.992;2023-06-24T21:44:29;19.42;;;14.70;;
24285;SDS011;26641;45.416;10.992;2023-06-24T21:46:57;22.08;;;15.63;;
24285;SDS011;26641;45.416;10.992;2023-06-24T21:49:23;22.33;;;15.68;;
24285;SDS011;26641;45.416;10.992;2023-06-24T21:51:51;22.92;;;15.88;;
24285;SDS011;26641;45.416;10.992;2023-06-24T21:54:18;22.77;;;15.87;;
24285;SDS011;26641;45.416;10.992;2023-06-24T21:56:44;22.33;;;15.70;;
24285;SDS011;26641;45.416;10.992;2023-06-24T21:59:10;22.80;;;15.85;;
24285;SDS011;26641;45.416;10.992;2023-06-24T22:01:36;25.38;;;16.50;;
24285;SDS011;26641;45.416;10.992;2023-06-24T22:04:02;28.38;;;17.33;;
24285;SDS011;26641;45.416;10.992;2023-06-24T22:06:27;28.17;;;17.40;;
24285;SDS011;26641;45.416;10.992;2023-06-24T22:08:53;32.35;;;18.40;;
24285;SDS011;26641;45.416;10.992;2023-06-24T22:11:19;35.17;;;18.98;;
24285;SDS011;26641;45.416;10.992;2023-06-24T22:13:45;34.97;;;18.97;;
